METAR Data
IDs: Format: Raw Decoded Include TAF

Data at: 1054 UTC 07 Dec 2022

PAOR 070953Z 00000KT 6SM -SN BR BKN048 OVC075 M14/M16 A2943 RMK AO2 SNB32 SLP021 T11441161